Time;durP1;ratioP1;P1;durP2;ratioP2;P2;SDS_P1;SDS_P2;PMS_P1;PMS_P2;Temp;Humidity;BMP_temperature;BMP_pressure;BME280_temperature;BME280_humidity;BME280_pressure;Samples;Min_cycle;Max_cycle;Signal;HPM_P1;HPM_P2
2022/04/18 00:03:03;;;;;;;1.80;1.20;;;7.30;53.00;;;5.59;45.28;100496.34;10296433;28;97026;-80
2022/04/18 00:08:06;;;;;;;1.93;1.13;;;7.30;53.00;;;5.62;45.58;100489.97;10295215;28;96809;-80
2022/04/18 00:13:10;;;;;;;3.97;1.60;;;7.30;52.90;;;5.65;45.60;100479.19;10326452;28;96500;-80
2022/04/18 00:18:13;;;;;;;2.80;1.53;;;7.30;53.20;;;5.68;45.99;100481.53;10346050;28;98430;-82
2022/04/18 00:23:16;;;;;;;3.20;1.20;;;7.40;53.40;;;5.70;46.24;100476.13;10309340;28;98791;-82
2022/04/18 00:28:19;;;;;;;3.57;1.87;;;7.40;53.60;;;5.73;45.93;100467.97;10354938;28;96836;-82
2022/04/18 00:33:22;;;;;;;2.23;1.33;;;7.40;53.40;;;5.78;45.38;100460.53;10321800;28;98497;-82
2022/04/18 00:38:25;;;;;;;3.20;1.50;;;7.40;53.10;;;5.82;45.20;100451.38;10292519;28;97610;-82
2022/04/18 00:43:42;;;;;;;1.47;0.87;;;7.50;53.00;;;5.86;45.27;100455.41;10310606;28;96532;-82
2022/04/18 00:48:46;;;;;;;3.03;1.30;;;7.50;52.80;;;5.87;45.02;100449.16;10362988;28;100656;-82
2022/04/18 00:53:55;;;;;;;2.07;1.30;;;7.50;53.00;;;5.87;45.48;100444.72;10367426;28;97294;-81
2022/04/18 00:58:59;;;;;;;3.00;1.60;;;7.50;53.50;;;5.87;45.26;100441.25;10337675;28;97292;-82
2022/04/18 01:04:05;;;;;;;3.30;1.30;;;7.50;53.50;;;5.90;45.49;100439.19;10343373;28;96772;-81
2022/04/18 01:09:08;;;;;;;2.33;1.47;;;7.50;53.50;;;5.92;45.15;100428.53;10331502;28;97222;-81
2022/04/18 01:14:11;;;;;;;2.17;1.27;;;7.50;53.50;;;5.94;45.32;100426.63;10313535;28;96600;-82
2022/04/18 01:19:14;;;;;;;2.27;1.30;;;7.50;53.40;;;5.97;45.09;100417.59;10329271;28;96671;-82
2022/04/18 01:29:38;;;;;;;2.37;1.37;;;7.60;53.60;;;5.97;45.78;100401.78;10307313;28;96755;-80
2022/04/18 01:34:41;;;;;;;4.07;1.43;;;7.60;53.80;;;5.98;45.78;100399.00;10292669;28;96514;-81
2022/04/18 01:39:43;;;;;;;3.40;1.20;;;7.60;53.90;;;5.96;45.84;100398.31;10296321;28;96571;-81
2022/04/18 01:44:47;;;;;;;2.07;1.30;;;7.60;53.90;;;5.97;45.59;100389.41;10311591;28;97029;-81
2022/04/18 01:49:50;;;;;;;2.00;1.30;;;7.60;53.70;;;5.99;45.68;100391.91;10340764;28;96689;-81
2022/04/18 01:54:53;;;;;;;3.07;1.80;;;7.60;53.90;;;5.96;45.97;100386.91;10322500;28;96516;-81
2022/04/18 01:59:56;;;;;;;2.07;1.30;;;7.60;54.10;;;5.97;46.01;100378.88;10299529;28;96676;-81
2022/04/18 02:05:00;;;;;;;2.73;1.40;;;7.60;54.00;;;5.97;46.29;100378.03;10321984;28;98538;-82
2022/04/18 02:10:04;;;;;;;2.83;1.67;;;7.60;54.70;;;5.96;46.23;100366.66;10291898;28;96565;-82
2022/04/18 02:15:08;;;;;;;3.20;1.43;;;7.60;54.20;;;5.97;46.08;100357.75;10307845;28;98717;-82
2022/04/18 02:20:11;;;;;;;2.07;1.37;;;7.60;54.30;;;5.96;46.28;100350.81;10329236;28;96606;-82
2022/04/18 02:25:15;;;;;;;2.07;1.27;;;7.60;54.50;;;5.95;46.73;100346.53;10317652;28;96541;-82
2022/04/18 02:30:19;;;;;;;3.63;1.50;;;7.60;54.60;;;5.92;46.93;100343.31;10342885;28;98259;-82
2022/04/18 02:35:24;;;;;;;2.77;1.20;;;7.60;54.70;;;5.93;47.04;100344.97;10329182;28;96601;-82
2022/04/18 02:40:27;;;;;;;3.60;1.40;;;7.60;54.90;;;5.92;47.42;100338.88;10332749;28;96551;-82
2022/04/18 02:45:31;;;;;;;3.53;1.50;;;7.50;55.30;;;5.90;47.12;100330.22;10300775;28;97258;-82
2022/04/18 02:50:35;;;;;;;4.93;1.63;;;7.60;55.20;;;5.87;47.59;100333.13;10303825;28;96755;-82
2022/04/18 02:55:39;;;;;;;3.27;2.00;;;7.50;55.20;;;5.83;47.55;100329.09;10357541;28;98801;-82
2022/04/18 03:00:41;;;;;;;5.67;2.87;;;7.50;55.20;;;5.79;47.37;100322.41;10312216;28;96616;-82
2022/04/18 03:05:44;;;;;;;7.43;2.60;;;7.50;55.10;;;5.75;47.13;100321.84;10328637;28;96734;-82
2022/04/18 03:11:02;;;;;;;5.50;2.13;;;7.40;55.00;;;5.74;47.02;100321.97;10312866;28;96583;-82
2022/04/18 03:16:06;;;;;;;4.37;1.90;;;7.40;55.20;;;5.70;46.99;100313.53;10330966;28;97169;-82
2022/04/18 03:21:10;;;;;;;4.40;1.67;;;7.30;55.20;;;5.71;46.81;100306.44;10342815;28;97775;-82
2022/04/18 03:26:13;;;;;;;2.43;1.47;;;7.40;55.20;;;5.72;46.91;100308.09;10305036;28;96630;-82
2022/04/18 03:31:16;;;;;;;2.40;1.70;;;7.40;55.80;;;5.73;46.86;100307.13;10362321;28;96644;-82
2022/04/18 03:41:41;;;;;;;2.28;1.48;;;7.40;55.70;;;5.69;47.41;100295.19;10336150;28;97293;-82
2022/04/18 03:46:44;;;;;;;2.53;1.47;;;7.30;55.80;;;5.64;47.72;100296.44;10326384;28;96499;-81
2022/04/18 03:51:47;;;;;;;2.77;1.60;;;7.30;55.90;;;5.64;47.84;100285.88;10314898;28;96716;-82
2022/04/18 03:56:50;;;;;;;4.03;1.37;;;7.30;55.90;;;5.63;47.68;100281.56;10317215;28;96366;-82
2022/04/18 04:01:52;;;;;;;2.90;1.50;;;7.30;56.10;;;5.66;47.84;100282.28;10365338;28;96577;-82
2022/04/18 04:06:55;;;;;;;6.07;1.30;;;7.30;56.00;;;5.68;48.15;100290.88;10299353;28;96658;-82
2022/04/18 04:11:59;;;;;;;7.13;1.60;;;7.30;56.30;;;5.69;48.18;100282.81;10295587;28;96612;-82
2022/04/18 04:17:02;;;;;;;2.33;1.47;;;7.30;56.30;;;5.70;48.51;100276.63;10327234;28;97399;-82
2022/04/18 04:22:05;;;;;;;6.90;2.07;;;7.40;56.80;;;5.73;48.79;100275.50;10360474;28;96723;-82
2022/04/18 04:27:07;;;;;;;3.17;1.60;;;7.40;56.80;;;5.76;49.51;100280.50;10294657;28;96467;-82
2022/04/18 04:32:10;;;;;;;4.17;2.10;;;7.40;57.10;;;5.77;49.40;100272.47;10294926;28;96998;-82
2022/04/18 04:37:14;;;;;;;8.43;2.80;;;7.40;57.30;;;5.83;49.40;100279.00;10320958;28;96617;-82
2022/04/18 04:42:18;;;;;;;7.67;3.53;;;7.50;57.30;;;5.85;49.52;100271.78;10365280;28;96774;-82
2022/04/18 04:47:21;;;;;;;7.57;4.10;;;7.50;57.30;;;5.89;49.27;100270.53;10357471;28;96537;-82
2022/04/18 04:52:24;;;;;;;19.17;8.87;;;7.50;57.40;;;5.94;49.07;100272.78;10303818;28;98665;-82
2022/04/18 04:57:27;;;;;;;13.50;7.47;;;7.60;57.20;;;6.01;49.25;100266.84;10298204;28;96698;-82
2022/04/18 05:02:30;;;;;;;8.37;4.80;;;7.60;57.10;;;6.10;49.68;100263.38;10339355;28;96529;-82
2022/04/18 05:07:33;;;;;;;7.43;4.23;;;7.70;57.40;;;6.22;49.69;100268.53;10294855;28;96669;-82
2022/04/18 05:12:36;;;;;;;7.63;4.03;;;7.80;57.60;;;6.29;49.43;100270.47;10313151;28;96527;-82
2022/04/18 05:17:38;;;;;;;5.10;3.20;;;7.90;57.70;;;6.35;49.92;100274.34;10351422;28;96603;-82
2022/04/18 05:22:42;;;;;;;8.87;2.70;;;7.90;57.90;;;6.40;50.92;100275.59;10292531;28;96599;-82
2022/04/18 05:27:45;;;;;;;3.90;2.00;;;7.90;58.80;;;6.45;50.87;100267.28;10326247;28;96561;-82
2022/04/18 05:32:48;;;;;;;16.93;8.57;;;8.00;58.80;;;6.52;49.54;100257.81;10329955;28;96605;-82
2022/04/18 05:37:51;;;;;;;5.10;2.70;;;8.10;57.90;;;6.60;49.19;100257.13;10343904;28;96605;-83
2022/04/18 05:42:55;;;;;;;3.87;2.53;;;8.20;57.80;;;6.74;49.22;100254.03;10301139;28;96830;-82
2022/04/18 05:47:57;;;;;;;5.57;2.60;;;8.30;57.80;;;6.91;49.49;100258.59;10304497;28;98424;-82
2022/04/18 05:53:01;;;;;;;3.93;1.90;;;8.40;58.00;;;7.05;49.12;100249.38;10299938;28;97800;-83
2022/04/18 05:58:04;;;;;;;4.40;2.40;;;8.50;57.80;;;7.18;48.14;100255.16;10317271;28;96694;-82
2022/04/18 06:03:07;;;;;;;7.40;3.17;;;8.70;57.30;;;7.28;46.47;100257.78;10346730;28;96579;-82
2022/04/18 06:08:10;;;;;;;4.20;2.23;;;8.80;56.50;;;7.37;46.43;100254.25;10309227;28;98477;-82
2022/04/18 06:13:13;;;;;;;3.93;1.80;;;8.90;56.10;;;7.44;45.31;100257.19;10368593;28;96544;-83
2022/04/18 06:18:17;;;;;;;4.77;2.63;;;8.90;55.50;;;7.55;46.86;100250.84;10374999;28;96698;-82
2022/04/18 06:23:20;;;;;;;2.60;1.80;;;9.00;56.80;;;7.59;46.89;100258.34;10344879;28;96666;-82
2022/04/18 06:28:23;;;;;;;7.40;4.27;;;9.00;56.50;;;7.67;46.64;100255.78;10383328;28;96499;-82
2022/04/18 06:33:28;;;;;;;3.60;2.23;;;9.10;56.30;;;7.76;45.46;100249.63;10331677;28;96603;-82
2022/04/18 06:38:31;;;;;;;85.50;18.27;;;9.20;55.50;;;7.82;44.47;100256.13;10315584;28;96568;-82
2022/04/18 06:43:35;;;;;;;34.27;10.20;;;9.30;54.80;;;7.88;44.36;100249.41;10338741;28;96544;-82
2022/04/18 06:48:38;;;;;;;22.20;7.00;;;9.40;54.80;;;7.93;44.33;100249.78;10333215;28;97608;-83
2022/04/18 06:53:40;;;;;;;11.00;4.20;;;9.40;54.60;;;7.91;44.32;100254.38;10323140;28;96801;-82
2022/04/18 06:58:43;;;;;;;6.07;2.93;;;9.50;54.60;;;7.88;45.13;100250.25;10328070;28;98373;-82
2022/04/18 07:03:46;;;;;;;6.00;2.77;;;9.40;54.90;;;7.85;43.58;100253.16;10315226;28;96777;-82
2022/04/18 07:08:50;;;;;;;23.00;11.77;;;9.40;54.30;;;7.85;43.69;100257.63;10303639;28;96628;-82
2022/04/18 07:13:53;;;;;;;46.47;26.03;;;9.40;54.00;;;7.86;43.27;100256.69;10323540;28;98479;-82
2022/04/18 07:18:59;;;;;;;5.97;3.17;;;9.40;53.90;;;7.82;43.86;100258.78;10323781;28;96681;-82
2022/04/18 07:24:03;;;;;;;20.43;11.07;;;9.40;54.00;;;7.80;46.79;100258.09;10326956;28;96565;-81
2022/04/18 07:29:06;;;;;;;6.03;3.17;;;9.30;56.00;;;7.76;46.79;100252.25;10296389;28;97044;-81
2022/04/18 07:34:10;;;;;;;6.50;3.43;;;9.30;56.10;;;7.96;46.68;100245.03;10326751;28;96659;-82
2022/04/18 07:39:13;;;;;;;13.97;7.53;;;9.40;56.00;;;8.23;45.45;100235.38;10332825;28;96612;-82
2022/04/18 07:44:17;;;;;;;11.17;7.10;;;9.50;55.90;;;8.44;44.63;100235.06;10328236;28;96842;-82
2022/04/18 07:49:20;;;;;;;13.27;6.83;;;9.70;55.30;;;8.51;43.52;100231.66;10315762;28;98234;-82
2022/04/18 07:54:23;;;;;;;22.93;10.30;;;9.80;54.60;;;8.60;43.63;100231.72;10294778;28;96719;-82
2022/04/18 07:59:28;;;;;;;4.93;2.30;;;9.90;54.50;;;8.75;42.85;100231.00;10326807;28;96686;-82
2022/04/18 08:04:31;;;;;;;4.67;2.20;;;10.10;54.30;;;8.98;42.41;100222.53;10296292;28;96466;-82
2022/04/18 08:09:33;;;;;;;3.90;1.80;;;10.30;53.80;;;9.28;41.25;100211.41;10324793;28;96334;-82
2022/04/18 08:14:36;;;;;;;4.83;2.27;;;10.50;53.20;;;9.78;42.11;100204.47;10310008;28;97045;-82
2022/04/18 08:19:40;;;;;;;5.93;3.67;;;10.70;53.30;;;10.27;39.88;100197.44;10305948;28;96758;-83
2022/04/18 08:24:43;;;;;;;13.47;4.00;;;11.10;52.00;;;10.46;39.14;100193.59;10351328;28;96558;-84
2022/04/18 08:29:46;;;;;;;6.03;2.60;;;11.40;51.60;;;10.52;37.55;100186.78;10339869;28;96599;-85
2022/04/18 08:34:49;;;;;;;2.87;1.70;;;11.60;49.90;;;10.61;38.09;100178.63;10303676;28;97281;-86
2022/04/18 08:39:53;;;;;;;2.37;1.33;;;11.90;49.80;;;10.83;37.18;100174.44;10385625;27;96465;-88
2022/04/18 08:44:56;;;;;;;3.33;1.80;;;12.20;47.60;;;11.18;36.37;100170.50;10350265;28;96593;-88
2022/04/18 08:55:20;;;;;;;;;;;12.60;47.90;;;11.36;34.52;100156.97;10313387;28;97506;-87
2022/04/18 09:00:24;;;;;;;3.17;1.50;;;12.70;46.30;;;12.00;35.09;100151.44;10323125;28;97379;-88
2022/04/18 09:05:27;;;;;;;2.70;1.50;;;12.90;46.90;;;12.82;32.97;100147.00;10380217;28;96633;-87
2022/04/18 09:10:30;;;;;;;3.20;1.60;;;13.40;46.10;;;12.59;32.31;100144.44;10305921;28;97500;-87
2022/04/18 09:15:38;;;;;;;5.10;2.07;;;13.50;44.70;;;12.37;34.80;100139.16;10341242;28;96960;-89
2022/04/18 09:20:49;;;;;;;2.80;1.55;;;13.40;46.20;;;12.21;33.49;100129.44;10373053;28;96768;-88
2022/04/18 09:26:00;;;;;;;2.43;1.40;;;13.50;45.40;;;12.31;33.39;100127.38;10320743;28;96386;-88
2022/04/18 09:31:07;;;;;;;4.72;1.73;;;13.60;45.40;;;12.42;33.61;100115.44;10309837;28;96968;-88
2022/04/18 09:36:19;;;;;;;3.38;1.30;;;13.70;45.20;;;12.65;32.51;100110.03;10316658;28;96983;-88
2022/04/18 09:41:25;;;;;;;2.50;1.40;;;13.90;44.50;;;12.91;30.94;100089.06;10302816;28;96935;-88
2022/04/18 09:46:28;;;;;;;3.45;1.63;;;14.30;42.90;;;13.16;31.24;100089.56;10328483;28;97999;-87
2022/04/18 09:51:37;;;;;;;3.58;1.85;;;14.30;43.60;;;13.43;31.83;100090.72;10328650;28;96591;-87
2022/04/18 09:57:06;;;;;;;3.20;1.60;;;14.60;43.80;;;13.60;31.29;100076.13;10315140;28;96654;-88
2022/04/18 10:02:13;;;;;;;2.88;1.55;;;14.80;42.30;;;13.79;31.20;100071.16;10344279;28;97413;-86
2022/04/18 10:07:16;;;;;;;4.10;1.60;;;15.00;42.90;;;14.25;29.19;100070.72;10343346;28;96652;-88
2022/04/18 10:12:20;;;;;;;3.50;1.40;;;15.40;41.80;;;14.21;28.72;100059.56;10304377;28;97408;-87
2022/04/18 10:17:27;;;;;;;5.72;2.58;;;15.50;40.90;;;14.08;28.32;100060.31;10333624;28;96569;-88
2022/04/18 10:23:30;;;;;;;2.65;1.48;;;15.50;40.10;;;14.08;28.35;100054.97;10331760;28;96706;-89
2022/04/18 10:28:46;;;;;;;1.70;1.25;;;15.50;39.70;;;14.62;27.59;100040.13;10335166;28;97589;-89
2022/04/18 10:33:49;;;;;;;2.15;1.40;;;15.80;39.50;;;14.79;27.33;100025.41;10326374;28;97034;-88
2022/04/18 10:38:55;;;;;;;2.38;1.25;;;16.00;39.20;;;14.68;25.72;100033.97;10332675;28;97478;-88
2022/04/18 10:44:07;;;;;;;3.78;1.60;;;16.00;38.20;;;14.70;26.84;100027.44;10307116;28;96632;-88
2022/04/18 10:49:26;;;;;;;4.07;1.60;;;15.80;38.40;;;14.79;26.38;100025.41;10312001;28;96668;-89
2022/04/18 10:54:30;;;;;;;2.45;1.50;;;15.80;37.70;;;14.45;26.60;100031.56;10317604;28;96838;-88
2022/04/18 10:59:42;;;;;;;2.88;1.35;;;15.60;38.40;;;13.73;26.37;100029.19;10338123;28;96433;-88
2022/04/18 11:04:46;;;;;;;2.55;1.58;;;15.20;37.70;;;13.10;27.74;100040.47;10349904;28;97008;-87
2022/04/18 11:09:49;;;;;;;2.83;1.70;;;14.70;38.40;;;12.56;27.84;100048.81;10317216;28;96672;-88
2022/04/18 11:15:05;;;;;;;5.17;2.83;;;14.20;38.70;;;11.80;31.46;100057.84;10310319;28;96632;-89
2022/04/18 11:20:33;;;;;;;4.03;1.80;;;13.50;41.50;;;11.43;34.06;100055.97;10317813;28;96628;-87
2022/04/18 11:26:03;;;;;;;28.63;15.20;;;13.10;43.00;;;11.72;32.56;100040.13;10334102;28;97452;-88
2022/04/18 11:31:16;;;;;;;8.73;4.25;;;13.20;42.90;;;12.97;31.62;100037.66;10310475;28;97006;-87
2022/04/18 11:36:24;;;;;;;3.72;1.92;;;13.80;43.80;;;14.82;28.38;100022.34;10379031;28;97138;-90
2022/04/18 11:41:27;;;;;;;6.90;4.47;;;15.30;41.50;;;15.76;27.74;100010.81;10334778;28;97255;-89
2022/04/18 11:46:30;;;;;;;3.15;1.90;;;16.10;41.80;;;16.12;26.26;100002.31;10319005;28;96726;-89
2022/04/18 11:51:41;;;;;;;10.20;5.80;;;16.60;39.80;;;16.38;25.38;99990.75;10300618;28;96645;-88
2022/04/18 11:57:00;;;;;;;2.53;1.70;;;17.00;38.50;;;16.60;25.14;99967.13;10317894;28;96894;-90
2022/04/18 12:07:26;;;;;;;3.33;1.00;;;17.50;37.90;;;17.10;23.12;99953.91;10366177;28;96548;-89
2022/04/18 12:12:31;;;;;;;13.85;6.90;;;17.90;36.30;;;17.08;24.08;99940.69;10334430;28;97509;-88
2022/04/18 12:17:34;;;;;;;4.15;1.80;;;17.70;36.30;;;16.34;23.63;99943.91;10315841;28;96643;-87
2022/04/18 12:22:37;;;;;;;2.03;1.10;;;17.40;35.80;;;15.09;24.27;99953.66;10337837;28;96527;-87
2022/04/18 12:27:40;;;;;;;2.20;1.20;;;16.40;35.00;;;14.39;25.49;99949.47;10303403;28;96545;-87
2022/04/18 12:32:47;;;;;;;2.30;1.13;;;15.80;36.10;;;13.75;25.96;99965.75;10356193;28;96925;-89
2022/04/18 12:37:52;;;;;;;1.52;1.00;;;15.20;36.60;;;13.13;27.33;99961.88;10358437;28;97394;-90
2022/04/18 12:42:55;;;;;;;2.87;1.47;;;14.60;37.60;;;12.67;28.91;99958.72;10332901;28;96535;-89
2022/04/18 12:48:04;;;;;;;3.17;1.50;;;14.10;38.60;;;12.73;29.32;99945.47;10390441;28;96610;-89
2022/04/18 12:53:07;;;;;;;2.30;1.47;;;14.00;39.10;;;12.82;29.37;99931.00;10349493;28;96502;-89
2022/04/18 12:58:19;;;;;;;3.20;1.67;;;14.10;39.60;;;12.72;30.28;99943.00;10336703;28;96506;-89
2022/04/18 13:03:27;;;;;;;5.97;3.17;;;14.30;41.00;;;12.92;30.64;99922.69;10344951;28;96795;-90
2022/04/18 13:08:36;;;;;;;5.32;2.13;;;14.60;40.80;;;13.48;30.24;99924.66;10331031;28;98278;-90
2022/04/18 13:13:39;;;;;;;3.35;1.42;;;15.10;40.40;;;14.39;29.18;99912.91;10316373;28;96630;-89
2022/04/18 13:18:42;;;;;;;2.75;1.52;;;16.00;39.60;;;15.22;27.75;99905.50;10334980;28;96540;-92
2022/04/18 13:23:44;;;;;;;3.83;1.50;;;17.10;38.80;;;15.97;26.29;99897.22;10347245;28;97849;-89
2022/04/18 13:28:47;;;;;;;2.05;1.15;;;17.90;37.90;;;17.05;25.60;99875.88;10332525;28;98178;-90
2022/04/18 13:33:51;;;;;;;1.77;1.23;;;18.80;37.10;;;17.74;23.01;99880.25;10330573;28;96829;-89
2022/04/18 13:38:55;;;;;;;1.30;1.10;;;19.70;35.30;;;17.18;23.22;99870.41;10344079;28;97458;-89
2022/04/18 13:43:58;;;;;;;2.63;1.30;;;19.20;34.60;;;16.79;24.49;99869.66;10327255;28;96980;-88
2022/04/18 13:49:01;;;;;;;2.17;1.35;;;18.90;34.90;;;16.40;23.96;99881.38;10329804;28;96608;-89
2022/04/18 13:54:04;;;;;;;2.35;1.35;;;18.50;34.40;;;15.33;25.57;99888.00;10313962;28;96377;-89
2022/04/18 13:59:07;;;;;;;2.63;1.40;;;17.60;35.10;;;13.97;29.35;99918.41;10353434;28;96263;-90
2022/04/18 14:04:11;;;;;;;3.45;1.73;;;16.00;38.40;;;13.04;30.71;99902.50;10377639;28;96364;-88
2022/04/18 14:09:14;;;;;;;2.70;1.50;;;15.00;39.40;;;12.64;31.07;99893.25;10381271;28;95631;-88
2022/04/18 14:25:00;;;;;;;1.93;1.20;;;13.80;41.50;;;13.24;32.82;99875.19;10327617;28;97516;-90
2022/04/18 14:30:04;;;;;;;1.92;1.20;;;14.60;42.20;;;14.46;30.02;99872.81;10306795;28;96515;-90
2022/04/18 14:35:08;;;;;;;3.65;2.20;;;15.70;41.00;;;15.72;28.46;99855.03;10371443;28;96512;-91
2022/04/18 14:40:11;;;;;;;3.80;2.08;;;16.70;40.40;;;16.83;26.13;99852.06;10370103;28;96643;-90
2022/04/18 14:45:14;;;;;;;4.35;2.10;;;18.00;38.80;;;17.10;25.23;99846.53;10318480;28;97354;-90
2022/04/18 14:50:19;;;;;;;2.42;1.58;;;18.30;37.00;;;17.38;24.76;99836.13;10322716;28;96791;-91
2022/04/18 14:55:23;;;;;;;3.65;1.55;;;18.40;37.20;;;17.01;24.68;99837.09;10341369;28;96744;-89
2022/04/18 15:00:29;;;;;;;2.05;1.23;;;18.50;36.00;;;16.07;24.43;99822.53;10333332;28;96809;-89
2022/04/18 15:05:32;;;;;;;12.45;6.05;;;17.80;35.70;;;14.79;26.60;99823.97;10298991;28;96480;-89
2022/04/18 15:10:36;;;;;;;6.07;3.50;;;16.70;36.60;;;13.80;27.61;99837.81;10298175;28;96348;-88
2022/04/18 15:15:39;;;;;;;5.15;2.60;;;15.70;37.40;;;13.09;28.98;99836.06;10331554;28;96472;-88
2022/04/18 15:20:42;;;;;;;4.07;2.13;;;14.90;38.50;;;12.77;30.49;99825.91;10305324;28;96513;-89
2022/04/18 15:25:45;;;;;;;2.30;1.70;;;14.50;39.70;;;13.03;30.08;99830.69;10313209;28;96604;-88
2022/04/18 15:36:10;;;;;;;5.35;3.10;;;14.80;40.00;;;13.82;28.93;99825.91;10298041;28;96806;-88
2022/04/18 15:41:13;;;;;;;3.53;1.95;;;15.10;39.40;;;13.95;29.29;99826.97;10324789;28;96410;-88
2022/04/18 15:46:16;;;;;;;3.25;1.45;;;15.20;39.40;;;14.00;28.15;99821.88;10297002;28;96450;-88
2022/04/18 15:51:19;;;;;;;1.77;1.20;;;15.30;38.90;;;13.74;28.29;99820.72;10304535;28;96931;-89
2022/04/18 15:56:22;;;;;;;1.77;1.27;;;15.00;38.90;;;13.57;28.92;99825.56;10326145;28;96873;-88
2022/04/18 16:01:25;;;;;;;2.50;1.40;;;14.90;39.30;;;13.77;27.95;99827.50;10295579;28;96542;-89
2022/04/18 16:06:28;;;;;;;3.83;1.50;;;14.90;38.80;;;13.51;28.17;99823.69;10294795;28;96468;-88
2022/04/18 16:11:32;;;;;;;3.20;2.50;;;14.80;38.90;;;13.12;28.25;99817.00;10326298;28;96518;-88
2022/04/18 16:16:37;;;;;;;2.50;1.20;;;14.50;38.90;;;12.63;29.02;99819.66;10322196;28;96578;-88
2022/04/18 16:21:40;;;;;;;1.93;1.20;;;14.00;39.20;;;12.25;29.67;99827.88;10292771;28;96447;-88
2022/04/18 16:26:43;;;;;;;1.70;1.10;;;13.60;39.70;;;12.10;29.99;99827.06;10301176;28;96514;-89
2022/04/18 16:31:52;;;;;;;2.07;1.27;;;13.50;40.10;;;11.88;30.44;99822.72;10334043;28;96465;-88
2022/04/18 16:36:56;;;;;;;2.17;1.50;;;13.30;40.30;;;11.74;30.59;99824.31;10309695;28;96553;-87
2022/04/18 16:47:20;;;;;;;2.75;1.60;;;13.00;40.90;;;11.51;30.53;99817.28;10301156;28;97683;-83
2022/04/18 16:52:23;;;;;;;2.43;1.30;;;12.90;40.90;;;11.32;31.05;99830.25;10340383;28;99090;-81
2022/04/18 16:57:27;;;;;;;2.50;1.57;;;12.70;41.20;;;10.96;32.50;99837.06;10327650;28;98176;-81
2022/04/18 17:02:29;;;;;;;4.43;1.93;;;12.40;42.80;;;10.75;33.62;99858.19;10339066;28;97420;-82
2022/04/18 17:07:33;;;;;;;4.10;2.20;;;12.10;43.70;;;10.42;36.48;99870.84;10387993;28;96593;-82
2022/04/18 17:12:37;;;;;;;2.40;1.70;;;11.80;47.60;;;10.05;37.40;99868.84;10333297;28;96488;-82
2022/04/18 17:17:40;;;;;;;3.60;1.63;;;11.40;47.10;;;9.82;38.75;99872.22;10328532;28;96595;-81
2022/04/18 17:22:44;;;;;;;3.63;2.57;;;11.20;48.00;;;9.65;41.22;99878.56;10360105;28;97571;-81
2022/04/18 17:27:47;;;;;;;3.73;2.00;;;11.10;49.60;;;9.27;42.22;99880.97;10335941;28;96440;-81
2022/04/18 17:32:50;;;;;;;3.80;2.30;;;10.80;51.20;;;9.10;42.82;99882.78;10304770;28;96774;-81
2022/04/18 17:37:53;;;;;;;3.83;2.40;;;10.60;51.30;;;9.01;43.46;99880.31;10306224;28;97521;-80
2022/04/18 17:42:57;;;;;;;3.70;2.23;;;10.50;52.20;;;8.96;43.45;99872.84;10292849;28;96772;-80
2022/04/18 17:47:59;;;;;;;7.93;4.90;;;10.50;51.80;;;8.94;44.36;99866.09;10308550;28;96901;-80
2022/04/18 17:55:48;;;;;;;5.00;3.30;;;10.40;52.30;;;8.90;44.94;99864.75;10322800;28;96503;-80
2022/04/18 17:58:28;;;;;;;7.03;3.20;;;10.40;52.20;;;8.82;45.24;99871.69;10322923;28;97114;-81
2022/04/18 18:03:31;;;;;;;5.77;2.87;;;10.40;52.10;;;8.77;44.89;99873.19;10307458;28;97004;-80
2022/04/18 18:08:33;;;;;;;4.60;2.67;;;10.30;52.30;;;8.72;45.27;99875.50;10315040;28;96634;-80
2022/04/18 18:13:38;;;;;;;5.50;3.37;;;10.30;52.80;;;8.67;44.86;99878.63;10325556;28;96387;-80
2022/04/18 18:18:41;;;;;;;15.27;8.40;;;10.20;52.60;;;8.60;45.57;99874.97;10321622;28;98259;-80
2022/04/18 18:23:44;;;;;;;8.80;4.73;;;10.20;52.80;;;8.51;45.51;99883.88;10326169;28;96593;-80
2022/04/18 18:28:47;;;;;;;10.40;4.90;;;10.10;53.30;;;8.39;46.05;99885.19;10318394;28;96620;-80
2022/04/18 18:33:50;;;;;;;18.80;8.03;;;10.00;53.00;;;8.29;46.53;99891.41;10317960;28;97888;-79
2022/04/18 18:38:53;;;;;;;10.20;3.87;;;9.90;53.80;;;8.16;46.76;99895.53;10342461;28;98317;-79
2022/04/18 18:43:56;;;;;;;5.60;2.73;;;9.80;53.70;;;8.02;47.19;99891.63;10313370;28;97553;-80
2022/04/18 18:48:59;;;;;;;3.77;2.47;;;9.60;53.90;;;7.82;48.57;99887.59;10318070;28;96781;-81
2022/04/18 18:54:04;;;;;;;3.77;2.67;;;9.50;54.20;;;7.67;49.31;99890.78;10326075;28;96761;-81
2022/04/18 18:59:10;;;;;;;4.47;2.80;;;9.30;54.80;;;7.56;49.52;99899.00;10313940;28;98511;-80
2022/04/18 19:04:17;;;;;;;5.23;2.63;;;9.20;55.40;;;7.45;49.72;99893.97;10317519;28;98562;-81
2022/04/18 19:09:20;;;;;;;5.37;3.47;;;9.10;55.60;;;7.33;50.70;99892.56;10304728;28;97527;-80
2022/04/18 19:14:23;;;;;;;8.77;4.13;;;9.00;56.50;;;7.24;50.46;99896.94;10320677;28;97655;-80
2022/04/18 19:30:10;;;;;;;7.80;4.15;;;8.60;59.00;;;6.80;53.16;99888.16;10335871;28;96601;-81
2022/04/18 19:35:13;;;;;;;6.80;4.20;;;8.50;58.80;;;6.71;53.62;99888.06;10298009;28;96627;-81
2022/04/18 19:40:18;;;;;;;9.30;4.90;;;8.40;59.60;;;6.59;54.20;99899.84;10305480;28;96492;-81
2022/04/18 19:45:21;;;;;;;9.57;4.97;;;8.30;60.20;;;6.45;54.43;99897.72;10336083;28;96509;-81
2022/04/18 19:50:24;;;;;;;11.97;6.53;;;8.10;60.30;;;6.28;54.54;99904.63;10334924;28;96995;-80
2022/04/18 19:55:27;;;;;;;14.60;7.10;;;8.00;60.70;;;6.08;56.45;99901.25;10316791;28;98509;-82
2022/04/18 20:00:30;;;;;;;12.40;6.97;;;7.80;60.80;;;5.92;56.99;99903.69;10332998;28;96587;-81
2022/04/18 20:05:34;;;;;;;12.83;5.30;;;7.70;62.30;;;5.74;57.55;99900.13;10325544;28;98306;-81
2022/04/18 20:10:37;;;;;;;9.00;4.90;;;7.50;62.90;;;5.60;57.67;99907.50;10319162;28;97037;-81
2022/04/18 20:15:42;;;;;;;7.23;3.47;;;7.40;63.40;;;5.50;57.23;99906.69;10330133;28;97161;-81
2022/04/18 20:21:00;;;;;;;11.03;4.93;;;7.20;62.90;;;5.44;57.03;99906.44;10351334;28;96829;-81
2022/04/18 20:26:06;;;;;;;11.20;5.10;;;7.20;62.70;;;5.42;56.93;99905.75;10314937;28;97037;-80
2022/04/18 20:31:10;;;;;;;11.30;5.20;;;7.10;63.00;;;5.38;57.34;99916.56;10304612;28;96591;-81
2022/04/18 20:36:14;;;;;;;9.03;4.90;;;7.10;63.20;;;5.38;57.58;99919.19;10335889;28;96872;-81
2022/04/18 20:41:17;;;;;;;9.37;5.30;;;7.10;63.70;;;5.41;57.42;99917.28;10316243;28;96603;-81
2022/04/18 20:46:20;;;;;;;8.77;4.57;;;7.10;63.50;;;5.43;57.72;99902.97;10344999;28;96696;-81
2022/04/18 20:51:23;;;;;;;8.60;3.80;;;7.10;63.50;;;5.49;57.05;99907.69;10363761;28;96898;-81
2022/04/18 21:01:49;;;;;;;7.73;4.03;;;7.20;63.60;;;5.64;57.72;99908.06;10321735;28;97395;-81
2022/04/18 21:06:54;;;;;;;10.40;5.57;;;7.30;63.70;;;5.73;57.94;99914.28;10368635;28;96670;-81
2022/04/18 21:11:57;;;;;;;15.10;7.30;;;7.30;64.20;;;5.74;57.64;99910.66;10324751;28;99382;-80
2022/04/18 21:17:00;;;;;;;9.90;5.17;;;7.40;65.10;;;5.64;57.72;99908.06;10338746;28;98521;-81
2022/04/18 21:22:04;;;;;;;10.60;5.40;;;7.30;65.40;;;5.57;58.22;99907.78;10369202;28;96461;-81
2022/04/18 21:27:07;;;;;;;9.97;5.00;;;7.20;65.20;;;5.58;58.38;99904.19;10380701;28;96354;-81
2022/04/18 21:32:10;;;;;;;8.40;4.43;;;7.20;65.00;;;5.62;58.26;99899.47;10335593;28;97523;-80
2022/04/18 21:37:13;;;;;;;9.93;4.43;;;7.20;65.60;;;5.58;58.53;99888.38;10371060;28;96623;-80
2022/04/18 21:42:16;;;;;;;8.10;3.83;;;7.20;65.60;;;5.59;58.58;99884.78;10313282;28;96793;-81
2022/04/18 21:47:19;;;;;;;9.50;4.73;;;7.20;65.90;;;5.57;59.45;99888.50;10313975;28;96734;-81
2022/04/18 21:52:23;;;;;;;6.90;4.43;;;7.20;65.80;;;5.55;59.64;99888.66;10332830;28;96444;-81
2022/04/18 21:57:27;;;;;;;8.07;4.40;;;7.20;66.90;;;5.58;59.59;99890.19;10309545;28;97335;-80
2022/04/18 22:02:30;;;;;;;6.27;4.00;;;7.20;67.70;;;5.57;59.45;99889.34;10312721;28;96575;-81
2022/04/18 22:07:33;;;;;;;6.93;4.10;;;7.20;67.10;;;5.54;59.58;99879.09;10300959;28;97433;-81
2022/04/18 22:12:36;;;;;;;7.50;3.90;;;7.20;67.20;;;5.58;59.17;99882.28;10298121;28;96813;-81